Time;durP1;ratioP1;P1;durP2;ratioP2;P2;SDS_P1;SDS_P2;PMS_P1;PMS_P2;Temp;Humidity;BMP_temperature;BMP_pressure;BME280_temperature;BME280_humidity;BME280_pressure;Samples;Min_cycle;Max_cycle;Signal;HPM_P1;HPM_P2
2021/12/02 00:02:02;;;;;;;3.65;0.88;;;;;;;4.79;81.66;99870.94;5053968;28;20464;-69
2021/12/02 00:04:30;;;;;;;6.18;0.80;;;;;;;4.71;81.53;99864.09;5035961;28;20017;-69
2021/12/02 00:06:55;;;;;;;7.35;0.98;;;;;;;4.71;81.94;99869.22;5053778;28;20112;-70
2021/12/02 00:09:20;;;;;;;5.18;1.00;;;;;;;4.73;82.41;99858.81;5055507;28;20158;-69
2021/12/02 00:11:46;;;;;;;6.93;0.80;;;;;;;4.66;83.01;99866.41;5056477;28;20475;-69
2021/12/02 00:14:13;;;;;;;6.63;1.00;;;;;;;4.55;83.26;99863.44;5036001;28;20048;-70
2021/12/02 00:16:51;;;;;;;7.32;0.93;;;;;;;4.53;83.38;99866.94;5053897;28;20021;-70
2021/12/02 00:22:02;;;;;;;7.57;1.05;;;;;;;4.39;84.10;99864.31;5014733;28;20041;-71
2021/12/02 00:24:34;;;;;;;6.18;1.00;;;;;;;4.26;84.81;99860.56;5012390;28;20022;-70
2021/12/02 00:27:00;;;;;;;6.43;1.13;;;;;;;4.29;85.20;99872.22;5013652;28;20030;-70
2021/12/02 00:29:29;;;;;;;6.57;0.80;;;;;;;4.15;85.61;99867.81;5013704;28;20029;-69
2021/12/02 00:31:54;;;;;;;4.15;1.08;;;;;;;4.14;85.86;99868.75;5013600;28;20084;-70
2021/12/02 00:34:20;;;;;;;5.47;1.27;;;;;;;4.15;85.09;99867.81;5012262;28;20536;-69
2021/12/02 00:36:46;;;;;;;4.75;1.10;;;;;;;4.18;85.75;99864.91;5013787;28;20025;-70
2021/12/02 00:39:14;;;;;;;5.32;0.85;;;;;;;4.12;86.23;99868.94;5013711;28;20155;-70
2021/12/02 00:41:40;;;;;;;4.88;1.10;;;;;;;4.11;86.07;99869.09;5012471;28;20388;-69
2021/12/02 00:44:06;;;;;;;7.70;1.40;;;;;;;4.17;86.85;99889.69;5013405;28;20033;-70
2021/12/02 00:46:32;;;;;;;7.50;1.02;;;;;;;4.14;87.04;99879.78;5012219;28;20056;-71
2021/12/02 00:49:02;;;;;;;5.32;0.95;;;;;;;4.22;86.05;99877.19;5012069;28;20469;-70
2021/12/02 00:51:29;;;;;;;10.40;1.20;;;;;;;4.28;86.89;99894.41;4996246;28;20025;-70
2021/12/02 00:53:59;;;;;;;6.75;1.30;;;;;;;4.20;86.98;99893.66;5012004;28;21608;-70
2021/12/02 00:56:25;;;;;;;5.85;1.00;;;;;;;4.21;87.23;99893.50;5013359;28;20156;-70
2021/12/02 00:58:52;;;;;;;4.50;0.95;;;;;;;4.25;87.96;99901.63;5013442;28;20024;-71
2021/12/02 01:01:19;;;;;;;5.95;1.10;;;;;;;4.14;87.98;99892.56;5016090;28;20034;-70
2021/12/02 01:03:48;;;;;;;4.30;0.88;;;;;;;4.05;88.40;99880.78;5017299;28;20034;-69
2021/12/02 01:06:13;;;;;;;4.68;0.80;;;;;;;3.99;87.96;99884.78;5017428;28;20389;-71
2021/12/02 01:08:40;;;;;;;6.35;0.80;;;;;;;3.93;87.82;99880.34;5017135;28;20036;-71
2021/12/02 01:11:07;;;;;;;6.93;1.10;;;;;;;3.99;88.53;99892.47;5015993;28;20036;-71
2021/12/02 01:13:32;;;;;;;6.05;1.33;;;;;;;3.99;88.88;99882.25;5017265;28;20068;-70
2021/12/02 01:15:58;;;;;;;1.75;0.68;;;;;;;4.02;88.58;99899.00;5015924;28;20472;-70
2021/12/02 01:18:24;;;;;;;5.28;0.90;;;;;;;4.15;88.20;99901.06;5045489;28;20037;-70
2021/12/02 01:20:51;;;;;;;6.15;1.10;;;;;;;4.18;88.75;99878.50;5056751;28;20349;-70
2021/12/02 01:23:18;;;;;;;4.60;0.90;;;;;;;4.18;87.72;99883.59;5038787;28;20050;-70
2021/12/02 01:26:14;;;;;;;4.05;1.10;;;;;;;4.18;89.00;99887.94;5056678;28;20028;-70
2021/12/02 01:28:39;;;;;;;4.32;1.02;;;;;;;4.07;88.28;99878.84;5056605;28;20026;-70
2021/12/02 01:31:05;;;;;;;2.83;0.80;;;;;;;3.98;88.17;99877.31;5056621;28;20036;-71
2021/12/02 01:33:32;;;;;;;8.05;0.93;;;;;;;3.99;88.95;99884.78;5056496;28;20427;-69
2021/12/02 01:36:00;;;;;;;8.35;1.10;;;;;;;3.96;90.20;99902.22;5056567;28;20028;-70
2021/12/02 01:38:27;;;;;;;6.20;0.88;;;;;;;4.06;90.33;99898.53;5056480;28;20025;-70
2021/12/02 01:40:55;;;;;;;7.03;0.75;;;;;;;4.11;89.56;99907.44;5056466;28;20036;-69
2021/12/02 01:43:22;;;;;;;6.40;0.82;;;;;;;4.19;88.69;99909.97;5056380;28;20021;-71
2021/12/02 01:45:47;;;;;;;4.75;1.15;;;;;;;4.10;89.64;99898.97;5038424;28;20468;-70
2021/12/02 01:48:23;;;;;;;3.72;0.90;;;;;;;4.10;89.13;99898.97;5056407;28;20078;-70
2021/12/02 01:51:03;;;;;;;5.60;0.82;;;;;;;4.16;88.64;99915.41;5056209;28;20021;-71
2021/12/02 01:53:39;;;;;;;7.45;0.70;;;;;;;4.17;88.84;99901.66;5038248;28;20025;-70
2021/12/02 01:56:12;;;;;;;1.85;0.60;;;;;;;4.06;89.32;99900.28;5038280;28;20021;-69
2021/12/02 01:58:43;;;;;;;6.03;1.00;;;;;;;4.19;88.95;99904.84;5056054;28;20029;-71
2021/12/02 02:01:14;;;;;;;3.08;0.60;;;;;;;4.17;88.11;99907.59;5056027;28;20053;-70
2021/12/02 02:03:40;;;;;;;3.95;0.80;;;;;;;4.13;89.02;99901.19;5038213;28;20056;-70
2021/12/02 02:06:08;;;;;;;3.80;0.40;;;;;;;4.07;88.67;99902.66;5056084;28;20063;-70
2021/12/02 02:08:35;;;;;;;3.50;0.75;;;;;;;4.11;88.91;99908.22;5055774;28;20155;-70
2021/12/02 02:11:00;;;;;;;2.67;0.63;;;;;;;4.05;89.11;99907.13;5055726;28;20031;-69
2021/12/02 02:13:26;;;;;;;7.03;0.90;;;;;;;3.97;90.24;99904.63;5038352;28;20127;-70
2021/12/02 02:15:53;;;;;;;2.72;0.57;;;;;;;4.00;90.14;99898.38;5056357;28;20460;-70
2021/12/02 02:18:23;;;;;;;1.95;0.52;;;;;;;4.09;90.39;99904.28;5055740;28;20048;-70
2021/12/02 02:21:03;;;;;;;5.93;0.80;;;;;;;4.16;89.06;99910.31;5037731;28;20112;-71
2021/12/02 02:23:32;;;;;;;6.50;0.88;;;;;;;4.20;90.14;99917.50;5037966;28;20488;-70
2021/12/02 02:25:58;;;;;;;5.38;0.80;;;;;;;4.26;88.96;99908.34;5055571;28;20040;-70
2021/12/02 02:28:24;;;;;;;6.13;0.82;;;;;;;4.25;87.56;99902.41;5037569;28;20025;-70
2021/12/02 02:30:49;;;;;;;4.43;0.77;;;;;;;4.29;87.53;99901.13;5055447;28;20021;-70
2021/12/02 02:33:17;;;;;;;3.03;0.55;;;;;;;4.16;87.91;99894.97;5055419;28;20028;-70
2021/12/02 02:35:43;;;;;;;6.90;0.82;;;;;;;4.07;88.02;99900.09;5055356;28;20021;-70
2021/12/02 02:38:10;;;;;;;9.40;0.88;;;;;;;4.02;88.41;99894.69;5037383;28;20071;-70
2021/12/02 02:40:36;;;;;;;3.90;0.73;;;;;;;3.86;89.30;99888.84;5055257;28;20025;-69
2021/12/02 02:43:09;;;;;;;7.07;0.60;;;;;;;3.72;90.48;99898.78;5037358;28;20024;-70
2021/12/02 02:45:36;;;;;;;7.43;0.88;;;;;;;3.75;90.80;99913.78;5037340;28;20468;-70
2021/12/02 02:48:02;;;;;;;2.13;0.50;;;;;;;3.81;91.42;99907.22;5055067;28;20060;-70
2021/12/02 02:50:31;;;;;;;3.67;0.52;;;;;;;3.96;90.92;99909.91;5054991;28;20054;-70
2021/12/02 02:53:16;;;;;;;2.55;0.50;;;;;;;4.02;89.47;99920.25;5055002;28;20468;-70
2021/12/02 02:55:46;;;;;;;4.68;0.90;;;;;;;3.96;90.62;99920.13;5054944;28;20032;-70
2021/12/02 02:58:21;;;;;;;4.70;0.57;;;;;;;4.03;90.43;99916.75;5037203;28;20036;-70
2021/12/02 03:01:34;;;;;;;3.95;0.70;;;;;;;4.11;89.83;99915.13;5055299;28;20021;-70
2021/12/02 03:09:39;;;;;;;7.32;1.30;;;;;;;4.12;89.47;99920.06;5055899;28;20029;-70
2021/12/02 03:11:46;;;;;;;10.00;1.60;;;;;;;4.13;90.13;99926.78;5046598;28;20029;-70
2021/12/02 03:14:17;;;;;;;4.93;1.20;;;;;;;4.12;90.95;99932.06;5055284;28;20048;-69
2021/12/02 03:16:46;;;;;;;2.92;1.20;;;;;;;4.13;90.61;99931.88;5055345;28;20059;-70
2021/12/02 03:19:21;;;;;;;5.88;0.98;;;;;;;4.17;90.43;99932.34;5036967;28;20131;-70
2021/12/02 03:21:46;;;;;;;7.97;1.33;;;;;;;4.29;90.06;99938.72;5054301;28;20530;-70
2021/12/02 03:24:11;;;;;;;6.15;1.20;;;;;;;4.26;89.31;99927.06;5054719;28;20063;-69
2021/12/02 03:26:37;;;;;;;4.65;1.40;;;;;;;4.32;89.63;99925.59;5055030;28;20021;-70
2021/12/02 03:29:03;;;;;;;4.55;0.70;;;;;;;4.24;89.78;99918.75;5036760;28;20024;-70
2021/12/02 03:31:29;;;;;;;3.22;1.38;;;;;;;4.23;88.53;99916.34;5054921;28;20053;-70
2021/12/02 03:33:54;;;;;;;4.50;1.02;;;;;;;4.12;89.42;99914.16;5054532;28;20029;-71
2021/12/02 03:36:19;;;;;;;7.03;0.90;;;;;;;4.13;88.84;99916.53;5054531;28;20020;-70
2021/12/02 03:38:46;;;;;;;6.30;0.90;;;;;;;4.13;88.24;99921.66;5054519;28;20035;-70
2021/12/02 03:41:13;;;;;;;10.73;1.02;;;;;;;4.10;88.77;99916.88;5054428;28;20078;-69
2021/12/02 03:43:41;;;;;;;8.95;1.10;;;;;;;4.02;88.67;99927.13;5054357;28;20471;-70
2021/12/02 03:46:08;;;;;;;4.30;0.95;;;;;;;4.05;87.37;99927.59;5054308;28;20116;-70
2021/12/02 03:48:36;;;;;;;4.30;0.98;;;;;;;4.12;88.56;99937.97;5036301;28;20099;-71
2021/12/02 03:51:02;;;;;;;3.38;0.70;;;;;;;3.95;88.22;99933.88;5054226;28;20029;-69
2021/12/02 03:53:27;;;;;;;7.65;1.17;;;;;;;3.87;89.00;99944.13;5054194;28;20028;-70
2021/12/02 03:55:52;;;;;;;6.10;0.73;;;;;;;3.55;88.75;99948.31;5036192;28;20056;-71
2021/12/02 03:58:18;;;;;;;8.50;0.93;;;;;;;3.57;88.41;99931.88;5054088;28;20029;-69
2021/12/02 04:00:43;;;;;;;2.63;0.50;;;;;;;3.54;88.55;99932.19;5036203;28;20043;-70
2021/12/02 04:03:08;;;;;;;2.45;0.60;;;;;;;3.57;88.19;99925.97;5036167;28;20029;-70
2021/12/02 04:05:33;;;;;;;8.35;0.82;;;;;;;3.59;89.19;99936.81;5036163;28;20033;-72
2021/12/02 04:07:59;;;;;;;3.25;0.55;;;;;;;3.50;88.90;99930.91;5036269;28;20025;-70
2021/12/02 04:10:25;;;;;;;5.82;0.82;;;;;;;3.55;89.25;99930.44;5036196;28;20369;-70
2021/12/02 04:15:39;;;;;;;5.75;1.40;;;;;;;3.49;88.73;99916.56;5054688;28;20031;-70
2021/12/02 04:18:04;;;;;;;4.07;1.23;;;;;;;3.46;90.48;99924.53;5035858;28;20033;-72
2021/12/02 04:20:29;;;;;;;2.67;0.50;;;;;;;3.54;90.21;99944.16;5054228;28;20525;-70
2021/12/02 04:22:56;;;;;;;2.80;0.45;;;;;;;3.46;90.09;99944.19;5053742;28;20031;-70
2021/12/02 04:25:22;;;;;;;4.53;0.75;;;;;;;3.54;89.63;99944.97;5053575;28;20021;-71
2021/12/02 04:27:48;;;;;;;3.65;0.70;;;;;;;3.30;89.91;99942.41;5035709;28;20027;-70
2021/12/02 04:30:16;;;;;;;5.20;0.60;;;;;;;3.30;89.07;99942.41;5035718;28;20021;-70
2021/12/02 04:32:41;;;;;;;4.43;0.60;;;;;;;3.32;90.33;99935.41;5035650;28;20029;-70
2021/12/02 04:35:08;;;;;;;5.70;0.95;;;;;;;3.26;90.81;99930.94;5052582;28;20098;-70
2021/12/02 04:37:34;;;;;;;2.80;0.80;;;;;;;3.27;89.81;99937.63;5036221;28;20532;-70
2021/12/02 04:39:59;;;;;;;4.07;0.50;;;;;;;3.31;90.84;99931.25;5035644;28;20063;-70
2021/12/02 04:42:25;;;;;;;3.08;0.50;;;;;;;3.36;90.64;99939.22;5035575;28;20028;-69
2021/12/02 04:44:50;;;;;;;4.45;0.70;;;;;;;3.28;90.14;99946.88;5035503;28;20136;-70
2021/12/02 04:47:16;;;;;;;3.47;0.77;;;;;;;3.21;89.60;99943.38;5053282;28;20435;-70
2021/12/02 04:49:42;;;;;;;5.25;0.70;;;;;;;3.17;90.30;99938.59;5035475;28;20025;-70
2021/12/02 04:52:08;;;;;;;1.85;0.50;;;;;;;3.11;89.94;99946.09;5053375;28;20074;-70
2021/12/02 04:54:33;;;;;;;4.22;0.63;;;;;;;2.97;90.16;99947.53;5053289;28;20047;-70
2021/12/02 04:56:58;;;;;;;4.30;0.60;;;;;;;2.91;90.58;99950.72;5053304;28;20025;-71
2021/12/02 04:59:23;;;;;;;6.18;0.75;;;;;;;2.94;90.58;99950.38;5053240;28;20032;-69
2021/12/02 05:01:49;;;;;;;3.60;0.73;;;;;;;2.92;90.76;99942.09;5035289;28;20033;-69
2021/12/02 05:04:14;;;;;;;3.35;0.63;;;;;;;2.87;90.82;99946.84;5053516;28;20151;-70
2021/12/02 05:06:39;;;;;;;3.03;0.63;;;;;;;2.84;90.74;99944.63;5053158;28;20029;-69
2021/12/02 05:09:04;;;;;;;4.10;1.20;;;;;;;2.88;90.79;99951.03;5053167;28;20028;-69
2021/12/02 05:11:30;;;;;;;2.28;0.52;;;;;;;2.94;91.00;99958.84;5035375;28;20116;-70
2021/12/02 05:13:55;;;;;;;3.35;0.77;;;;;;;2.94;91.20;99979.25;5053884;28;20021;-71
2021/12/02 05:16:20;;;;;;;2.33;0.73;;;;;;;2.99;91.12;100000.94;5053314;28;20025;-71
2021/12/02 05:18:46;;;;;;;2.28;1.02;;;;;;;2.98;90.47;99994.25;5035363;28;20076;-70
2021/12/02 05:21:11;;;;;;;2.70;0.75;;;;;;;3.03;90.36;99997.94;5053363;28;20138;-71
2021/12/02 05:23:37;;;;;;;3.83;0.57;;;;;;;2.92;91.19;99991.38;5053215;28;20461;-71
2021/12/02 05:26:02;;;;;;;1.67;0.60;;;;;;;2.92;90.86;99995.69;5054623;28;20025;-72
2021/12/02 05:28:27;;;;;;;6.88;1.00;;;;;;;2.92;89.81;99990.56;5038165;28;20021;-71
2021/12/02 05:30:53;;;;;;;4.00;0.68;;;;;;;2.89;90.14;99993.44;5056152;28;20486;-73
2021/12/02 05:33:18;;;;;;;3.10;0.75;;;;;;;2.85;90.47;99994.69;5037725;28;20025;-73
2021/12/02 05:35:44;;;;;;;4.53;0.90;;;;;;;2.94;90.04;99986.91;5055332;28;20052;-71
2021/12/02 05:38:10;;;;;;;2.97;0.55;;;;;;;2.92;90.44;99999.03;5055881;28;20024;-72
2021/12/02 05:40:35;;;;;;;4.10;0.70;;;;;;;2.98;90.29;99989.16;5037688;28;20025;-71
2021/12/02 05:43:01;;;;;;;2.83;0.70;;;;;;;3.05;90.09;99997.75;5055109;28;20071;-74
2021/12/02 05:45:26;;;;;;;6.93;1.20;;;;;;;3.09;89.27;99986.31;5055193;28;20099;-71
2021/12/02 05:47:52;;;;;;;5.10;0.47;;;;;;;3.16;89.39;99985.53;5057192;28;20025;-71
2021/12/02 05:50:17;;;;;;;5.35;0.85;;;;;;;3.12;89.44;99965.56;5057200;28;20482;-72
2021/12/02 05:52:42;;;;;;;2.00;0.50;;;;;;;3.13;89.15;99964.59;5057441;28;20029;-72
2021/12/02 05:55:08;;;;;;;0.90;0.55;;;;;;;3.12;88.85;99975.78;5038872;28;20061;-70
2021/12/02 05:57:33;;;;;;;4.20;1.25;;;;;;;3.00;88.96;99954.84;5056843;28;20029;-71
2021/12/02 05:59:59;;;;;;;4.68;0.73;;;;;;;3.00;89.10;99961.72;5056642;28;20029;-71
2021/12/02 06:02:25;;;;;;;4.88;1.00;;;;;;;2.84;89.77;99952.28;5056635;28;20142;-70
2021/12/02 06:04:52;;;;;;;3.92;1.00;;;;;;;2.84;89.88;99963.28;5056621;28;20059;-70
2021/12/02 06:07:19;;;;;;;12.38;1.15;;;;;;;2.74;89.75;99957.53;5056268;28;20017;-73
2021/12/02 06:09:44;;;;;;;2.22;1.08;;;;;;;2.63;89.98;99957.81;5056250;28;20025;-73
2021/12/02 06:12:10;;;;;;;2.80;1.30;;;;;;;2.55;90.59;99965.44;5038874;28;20529;-71
2021/12/02 06:14:36;;;;;;;4.75;1.40;;;;;;;2.62;90.98;99964.66;5056256;28;20059;-71
2021/12/02 06:17:01;;;;;;;4.05;1.20;;;;;;;2.68;90.82;99965.81;5056332;28;20068;-72
2021/12/02 06:19:26;;;;;;;5.97;1.10;;;;;;;2.75;90.04;99976.19;5038373;28;20048;-72
2021/12/02 06:21:52;;;;;;;3.60;0.98;;;;;;;2.65;89.75;99983.97;5038602;28;20036;-75
2021/12/02 06:24:18;;;;;;;2.70;1.00;;;;;;;2.55;90.30;99978.19;5038479;28;20020;-70
2021/12/02 06:26:43;;;;;;;6.05;1.15;;;;;;;2.58;90.51;99982.97;5056486;28;20028;-71
2021/12/02 06:29:09;;;;;;;3.33;1.40;;;;;;;2.61;90.34;99980.13;5056216;28;20111;-72
2021/12/02 06:31:34;;;;;;;4.00;1.45;;;;;;;2.56;90.54;99978.03;5056573;28;20488;-72
2021/12/02 06:33:59;;;;;;;3.40;1.48;;;;;;;2.55;90.59;99986.63;5056273;28;20025;-71
2021/12/02 06:36:25;;;;;;;5.55;1.98;;;;;;;2.68;90.02;99984.47;5038289;28;20029;-71
2021/12/02 06:38:50;;;;;;;4.10;2.20;;;;;;;2.68;90.53;99981.13;5038423;28;20039;-72
2021/12/02 06:41:18;;;;;;;6.28;2.38;;;;;;;2.71;90.72;99981.59;5055773;28;20025;-71
2021/12/02 06:43:43;;;;;;;4.63;2.10;;;;;;;2.72;90.55;99990.03;5055544;28;20033;-69
2021/12/02 06:46:08;;;;;;;6.63;1.90;;;;;;;2.78;90.50;99993.72;5037676;28;20468;-69
2021/12/02 06:48:33;;;;;;;2.53;1.40;;;;;;;2.84;90.21;99993.91;5055386;28;20025;-69
2021/12/02 06:50:59;;;;;;;6.90;1.35;;;;;;;2.81;90.24;100006.16;5037612;28;20032;-69
2021/12/02 06:53:24;;;;;;;3.78;1.10;;;;;;;2.81;89.97;100003.63;5055401;28;20052;-70
2021/12/02 06:55:49;;;;;;;4.50;1.08;;;;;;;2.81;91.17;100013.81;5037407;28;20116;-70
2021/12/02 06:58:14;;;;;;;5.85;0.95;;;;;;;2.88;89.96;100015.63;5054371;28;20021;-71
2021/12/02 07:00:40;;;;;;;9.90;1.13;;;;;;;2.99;90.42;100017.06;5055220;28;20029;-69
2021/12/02 07:03:05;;;;;;;4.25;1.10;;;;;;;3.04;89.52;100017.38;5055127;28;20565;-69
2021/12/02 07:05:32;;;;;;;3.30;1.02;;;;;;;3.09;90.10;100035.59;5037242;28;20025;-72
2021/12/02 07:07:58;;;;;;;4.65;1.20;;;;;;;3.10;88.84;100044.84;5037924;28;20129;-71
2021/12/02 07:10:25;;;;;;;7.00;1.20;;;;;;;2.96;89.98;100049.75;5055287;28;20112;-72
2021/12/02 07:12:55;;;;;;;4.63;0.93;;;;;;;2.84;90.12;100057.69;5037079;28;20025;-70
2021/12/02 07:15:26;;;;;;;7.25;1.10;;;;;;;2.67;89.81;100056.03;5037057;28;20387;-72
2021/12/02 07:17:59;;;;;;;3.13;0.77;;;;;;;2.70;89.87;100042.97;5036961;28;20127;-70
2021/12/02 07:20:29;;;;;;;3.78;1.00;;;;;;;2.76;90.08;100047.44;5054856;28;20048;-71
2021/12/02 07:22:55;;;;;;;4.05;0.85;;;;;;;2.61;89.16;100051.53;5037250;28;20392;-70
2021/12/02 07:25:20;;;;;;;4.18;1.10;;;;;;;2.75;88.70;100052.72;5054824;28;20028;-72
2021/12/02 07:27:47;;;;;;;6.55;1.27;;;;;;;2.88;89.20;100079.41;5036806;28;20040;-72
2021/12/02 07:30:13;;;;;;;6.15;1.60;;;;;;;2.80;89.27;100081.13;5054635;28;20033;-71
2021/12/02 07:32:40;;;;;;;3.05;0.88;;;;;;;2.70;89.98;100086.34;5054617;28;20028;-70
2021/12/02 07:35:11;;;;;;;2.42;0.90;;;;;;;2.65;89.20;100076.59;5054619;28;20059;-71
2021/12/02 07:37:40;;;;;;;5.40;1.10;;;;;;;2.58;89.05;100098.56;5054512;28;20029;-71
2021/12/02 07:40:06;;;;;;;7.03;1.30;;;;;;;2.44;90.08;100099.91;5054527;28;20380;-71
2021/12/02 07:42:32;;;;;;;3.78;1.13;;;;;;;2.31;89.68;100102.06;5054283;28;20043;-70
2021/12/02 07:44:58;;;;;;;3.25;0.93;;;;;;;2.14;89.70;100096.06;5054297;28;20032;-72
2021/12/02 07:47:25;;;;;;;2.83;0.90;;;;;;;2.05;90.73;100101.25;5036341;28;20029;-72
2021/12/02 07:49:51;;;;;;;4.13;0.88;;;;;;;2.01;89.97;100088.00;5054215;28;20032;-72
2021/12/02 07:52:23;;;;;;;3.78;0.98;;;;;;;2.21;89.80;100091.97;5054432;28;20431;-72
2021/12/02 07:54:51;;;;;;;3.30;1.40;;;;;;;2.24;90.09;100093.41;5054355;28;20024;-72
2021/12/02 07:57:16;;;;;;;3.13;0.90;;;;;;;2.18;89.90;100084.59;5036316;28;20024;-73
2021/12/02 07:59:42;;;;;;;4.15;1.27;;;;;;;2.22;90.46;100088.47;5036266;28;20075;-72
2021/12/02 08:02:14;;;;;;;4.65;1.20;;;;;;;2.53;89.49;100094.88;5053915;28;20103;-71
2021/12/02 08:04:39;;;;;;;2.20;1.10;;;;;;;2.54;89.86;100107.47;5054157;28;20028;-72
2021/12/02 08:07:04;;;;;;;5.68;0.90;;;;;;;2.59;89.69;100112.09;5053880;28;20111;-73
2021/12/02 08:09:30;;;;;;;3.85;1.40;;;;;;;2.65;90.59;100114.09;5035846;28;20040;-72
2021/12/02 08:11:58;;;;;;;5.50;1.10;;;;;;;2.60;89.83;100117.06;5053736;28;20092;-73
2021/12/02 08:14:24;;;;;;;3.50;1.35;;;;;;;2.59;89.91;100117.22;5054320;28;20372;-72
2021/12/02 08:16:49;;;;;;;2.42;1.20;;;;;;;2.60;89.81;100109.41;5053595;28;20021;-72
2021/12/02 08:19:14;;;;;;;5.60;1.30;;;;;;;2.71;89.45;100124.47;5035986;28;20020;-71
2021/12/02 08:21:40;;;;;;;2.63;0.98;;;;;;;2.77;90.14;100138.38;5035858;28;20051;-73
2021/12/02 08:24:05;;;;;;;4.90;0.98;;;;;;;2.72;90.34;100132.91;5035951;28;20035;-73
2021/12/02 08:26:31;;;;;;;4.00;0.93;;;;;;;2.65;89.42;100155.69;5035566;28;20071;-73
2021/12/02 08:28:57;;;;;;;4.05;1.13;;;;;;;2.69;89.94;100162.09;5053411;28;20037;-73
2021/12/02 08:31:22;;;;;;;8.20;2.10;;;;;;;2.66;89.67;100157.28;5054130;28;20028;-74
2021/12/02 08:33:49;;;;;;;6.00;2.70;;;;;;;2.79;89.82;100150.97;5035618;28;20021;-74
2021/12/02 08:36:15;;;;;;;6.88;1.70;;;;;;;2.80;89.92;100158.47;5035451;28;20503;-75
2021/12/02 08:38:41;;;;;;;6.15;1.70;;;;;;;2.89;88.98;100172.09;5054379;28;20017;-71
2021/12/02 08:41:06;;;;;;;6.30;1.90;;;;;;;3.05;89.05;100171.34;5053894;28;20087;-71
2021/12/02 08:43:31;;;;;;;3.83;1.75;;;;;;;3.23;88.11;100171.28;5035852;28;20081;-73
2021/12/02 08:45:57;;;;;;;5.15;1.42;;;;;;;3.30;87.19;100155.19;5053909;28;20068;-72
2021/12/02 08:48:22;;;;;;;8.95;1.20;;;;;;;3.94;87.43;100178.50;5053907;28;20487;-75
2021/12/02 08:50:48;;;;;;;10.63;1.40;;;;;;;4.36;84.13;100180.09;5056296;28;20036;-72
2021/12/02 08:53:13;;;;;;;5.32;1.15;;;;;;;4.46;84.10;100178.19;5035576;28;20112;-72
2021/12/02 08:55:39;;;;;;;3.78;1.20;;;;;;;4.44;84.47;100172.41;5053390;28;20155;-71
2021/12/02 08:58:07;;;;;;;4.97;1.05;;;;;;;4.43;85.41;100185.34;5053376;28;20028;-72
2021/12/02 09:00:34;;;;;;;6.80;1.33;;;;;;;4.44;83.83;100189.53;5053271;28;20406;-71
2021/12/02 09:03:01;;;;;;;5.28;1.33;;;;;;;4.23;84.85;100183.16;5053212;28;20017;-72
2021/12/02 09:05:26;;;;;;;4.63;1.25;;;;;;;4.05;86.14;100201.19;5035440;28;20112;-72
2021/12/02 09:07:52;;;;;;;5.03;1.25;;;;;;;4.04;86.65;100194.47;5053290;28;20113;-72
2021/12/02 09:10:21;;;;;;;5.63;1.25;;;;;;;3.90;86.41;100204.53;5053269;28;20029;-71
2021/12/02 09:12:46;;;;;;;4.53;1.20;;;;;;;3.73;87.60;100209.59;5035243;28;20032;-72
2021/12/02 09:15:11;;;;;;;5.00;1.77;;;;;;;3.69;87.84;100215.19;5053635;28;20025;-72
2021/12/02 09:17:37;;;;;;;4.30;1.10;;;;;;;3.48;88.23;100192.59;5053602;28;20099;-73
2021/12/02 09:20:04;;;;;;;5.93;1.17;;;;;;;3.68;88.20;100209.25;5054381;28;20054;-76
2021/12/02 09:22:29;;;;;;;2.80;0.98;;;;;;;3.88;86.92;100214.91;5041129;28;20056;-72
2021/12/02 09:28:16;;;;;;;4.28;1.10;;;;;;;3.91;87.72;100224.00;5057866;28;20451;-73
2021/12/02 09:30:42;;;;;;;4.75;1.25;;;;;;;3.93;87.30;100222.09;5059598;28;20024;-73
2021/12/02 09:33:07;;;;;;;5.68;1.40;;;;;;;3.83;88.36;100217.16;5039904;28;20020;-72
2021/12/02 09:35:34;;;;;;;4.50;0.95;;;;;;;3.88;88.34;100235.34;5039518;28;20073;-72
2021/12/02 09:38:00;;;;;;;3.47;1.08;;;;;;;3.73;87.73;100229.25;5056814;28;20013;-72
2021/12/02 09:40:25;;;;;;;4.00;1.00;;;;;;;3.61;87.79;100224.41;5056861;28;20029;-72
2021/12/02 09:42:51;;;;;;;3.25;0.90;;;;;;;3.67;87.22;100228.09;5056814;28;20533;-73
2021/12/02 09:45:17;;;;;;;2.40;0.90;;;;;;;3.73;87.15;100234.34;5038845;28;20363;-74
2021/12/02 09:47:45;;;;;;;2.80;0.90;;;;;;;3.65;87.33;100224.09;5038632;28;20436;-72
2021/12/02 09:50:18;;;;;;;2.83;1.00;;;;;;;3.91;87.24;100234.25;5056634;28;20387;-73
2021/12/02 09:52:44;;;;;;;3.22;1.10;;;;;;;4.01;87.26;100243.38;5038710;28;20471;-72
2021/12/02 09:55:20;;;;;;;3.03;0.88;;;;;;;3.96;86.20;100252.47;5038717;28;20021;-71
2021/12/02 09:57:54;;;;;;;3.92;0.93;;;;;;;4.19;86.86;100257.78;5056527;28;20415;-72
2021/12/02 10:00:35;;;;;;;4.15;1.30;;;;;;;4.59;84.67;100269.00;5056982;28;20025;-72
2021/12/02 10:03:07;;;;;;;2.20;1.02;;;;;;;4.90;84.49;100275.06;5038518;28;20464;-72
2021/12/02 10:05:49;;;;;;;4.82;0.80;;;;;;;4.47;85.64;100289.00;5056623;28;20028;-73
2021/12/02 10:08:23;;;;;;;2.35;0.90;;;;;;;3.99;87.93;100288.75;5038505;28;20021;-72
2021/12/02 10:11:00;;;;;;;3.10;0.98;;;;;;;4.20;89.00;100295.19;5038519;28;20376;-72
2021/12/02 10:13:30;;;;;;;2.38;0.80;;;;;;;3.86;87.65;100308.06;5038415;28;20025;-72
2021/12/02 10:16:02;;;;;;;1.90;0.75;;;;;;;3.67;88.44;100320.09;5038403;28;20029;-73
2021/12/02 10:18:41;;;;;;;1.52;0.55;;;;;;;3.38;88.60;100330.66;5056200;28;20053;-72
2021/12/02 10:21:24;;;;;;;2.10;0.60;;;;;;;3.12;87.21;100331.44;5038350;28;20120;-72
2021/12/02 10:23:49;;;;;;;2.50;0.70;;;;;;;3.11;88.75;100329.06;5038491;28;20029;-71
2021/12/02 10:26:18;;;;;;;1.38;0.50;;;;;;;3.19;88.84;100298.44;5056277;28;20104;-70
2021/12/02 10:28:44;;;;;;;3.45;0.63;;;;;;;3.32;87.64;100286.09;5055988;28;20464;-70
2021/12/02 10:31:16;;;;;;;3.17;0.70;;;;;;;3.26;88.03;100280.78;5055320;28;20029;-70
2021/12/02 10:33:49;;;;;;;1.75;0.70;;;;;;;3.31;88.38;100278.56;5055315;28;20085;-70
2021/12/02 10:36:34;;;;;;;3.30;1.25;;;;;;;3.60;88.09;100275.69;5038209;28;20364;-73
2021/12/02 10:39:08;;;;;;;1.88;1.00;;;;;;;3.50;88.71;100275.78;5056015;28;20036;-72
2021/12/02 10:41:33;;;;;;;15.82;1.38;;;;;;;3.40;88.29;100275.13;5037976;28;20043;-70
2021/12/02 10:44:14;;;;;;;2.53;1.08;;;;;;;3.46;88.32;100273.72;5037772;28;20025;-71
2021/12/02 10:50:10;;;;;;;3.58;1.02;;;;;;;3.32;89.39;100273.31;5055974;28;20083;-70
2021/12/02 10:52:36;;;;;;;5.35;1.00;;;;;;;3.40;89.65;100287.91;5055714;28;20029;-70
2021/12/02 10:55:22;;;;;;;3.03;1.48;;;;;;;3.37;89.67;100299.22;5037819;28;20028;-71
2021/12/02 10:57:48;;;;;;;3.05;1.73;;;;;;;3.35;89.42;100301.09;5059122;28;20491;-75
2021/12/02 11:00:20;;;;;;;2.90;1.40;;;;;;;3.52;89.64;100317.31;5039772;28;20060;-72
2021/12/02 11:02:53;;;;;;;3.40;1.45;;;;;;;3.72;89.86;100322.22;5037998;28;20028;-70
2021/12/02 11:05:26;;;;;;;2.17;1.40;;;;;;;3.82;89.12;100328.00;5055978;28;20025;-71
2021/12/02 11:07:56;;;;;;;3.30;1.15;;;;;;;3.82;88.49;100330.53;5055214;28;20033;-71
2021/12/02 11:10:24;;;;;;;3.55;1.20;;;;;;;3.84;88.48;100334.56;5055681;28;20349;-73
2021/12/02 11:12:53;;;;;;;4.28;1.10;;;;;;;3.81;87.15;100339.19;5055363;28;20032;-71
2021/12/02 11:15:19;;;;;;;2.85;1.20;;;;;;;3.82;87.12;100343.31;5055037;28;20024;-70
2021/12/02 11:17:58;;;;;;;2.83;1.20;;;;;;;3.87;86.82;100338.56;5036728;28;20045;-70
2021/12/02 11:20:29;;;;;;;2.35;1.20;;;;;;;3.85;87.76;100337.91;5037002;28;20039;-72
2021/12/02 11:23:14;;;;;;;5.88;1.60;;;;;;;4.06;85.99;100345.19;5054990;28;20029;-70
2021/12/02 11:25:56;;;;;;;2.33;1.42;;;;;;;3.87;86.37;100343.69;5054963;28;20021;-72
2021/12/02 11:28:24;;;;;;;4.00;1.60;;;;;;;3.81;87.25;100336.63;5054776;28;20021;-71
2021/12/02 11:30:49;;;;;;;3.55;1.58;;;;;;;3.94;86.47;100341.28;5054611;28;20029;-71
2021/12/02 11:33:18;;;;;;;4.28;1.77;;;;;;;4.14;85.78;100352.06;5054592;28;20027;-71
2021/12/02 11:35:46;;;;;;;4.95;2.40;;;;;;;4.07;85.91;100346.78;5054692;28;20025;-72
2021/12/02 11:38:24;;;;;;;5.32;2.30;;;;;;;4.23;85.88;100346.03;5054573;28;20028;-72
2021/12/02 11:40:52;;;;;;;3.92;2.10;;;;;;;4.20;85.45;100348.88;5054453;28;20070;-71
2021/12/02 11:43:23;;;;;;;4.13;2.30;;;;;;;4.66;83.97;100351.84;5036042;28;20025;-72
2021/12/02 11:45:50;;;;;;;4.22;2.30;;;;;;;4.42;84.24;100343.19;5036635;28;20078;-71
2021/12/02 11:48:22;;;;;;;5.13;2.20;;;;;;;4.10;85.14;100340.56;5054347;28;20028;-72
2021/12/02 11:54:09;;;;;;;7.57;2.15;;;;;;;4.80;85.27;100329.94;5054544;28;20447;-72
2021/12/02 11:56:35;;;;;;;2.80;1.80;;;;;;;10.71;62.04;100328.84;5054219;28;20053;-73
2021/12/02 11:59:01;;;;;;;3.70;1.80;;;;;;;13.99;52.30;100336.78;5054414;28;20027;-73
2021/12/02 12:01:28;;;;;;;5.47;1.67;;;;;;;15.56;47.35;100332.06;5054222;28;20124;-74
2021/12/02 12:04:00;;;;;;;4.10;1.70;;;;;;;14.76;47.24;100333.50;5036618;28;20021;-76